Impacts METAR Board
IDs:

KDEN - Denver Intl, CO, US

Updated at: 0000 UTC 24 Jun 2018
Potential Impact None Slight Moderate High
Time 23/12Z 23/13Z 23/14Z 23/15Z 23/16Z 23/17Z 23/18Z 23/19Z 23/20Z 23/21Z 23/22Z 23/23Z 24/00Z
Temp55 63 68 73 76 79 82 84 84 86 86 87 86
Dewpt47 48 47 45 45 40 38 35 32 34 33 33 41
Altim29.99 29.99 29.99 29.99 29.98 29.97 29.96 29.93 29.90 29.87 29.85 29.84 29.82
VIS10 10 10 10 10 10 10 10 10 10 10 10 10
CIG-- -- -- 220 220 220 220 220 220 -- -- -- --
CoverFEWFEWSCTBKNBKNBKNBKNBKNBKNSCTSCTSCTFEW
FltCatVFRVFRVFRVFRVFRVFRVFRVFRVFRVFRVFRVFRVFR
WX--------------------------
WDir200190220240190300034033010060120
WSpd8 5 6 5 5 4 6 10 7 13 0 6 11
WGst-- -- -- -- -- -- -- 16 16 -- -- 17 22
Raw hourly METARs
KDEN 231153Z 20008KT 10SM FEW120 FEW220 13/08 A2999 RMK AO2 SLP083 T01280083 10156 20106 56007
KDEN 231253Z 19005KT 10SM FEW120 FEW220 17/09 A2999 RMK AO2 SLP077 T01720089
KDEN 231353Z 22006KT 10SM FEW120 SCT220 20/08 A2999 RMK AO2 SLP072 T02000083
KDEN 231453Z 24005KT 10SM FEW120 BKN220 23/07 A2999 RMK AO2 SLP073 T02280072 53000
KDEN 231553Z 19005KT 10SM FEW080 SCT140 BKN220 24/07 A2998 RMK AO2 SLP073 T02440072
KDEN 231653Z 30004KT 10SM FEW080 SCT140 BKN220 26/04 A2997 RMK AO2 SLP071 T02610044
KDEN 231753Z VRB06KT 10SM FEW080 SCT140 BKN220 28/03 A2996 RMK AO2 SLP064 T02780033 10278 20128 56011
KDEN 231853Z 34010G16KT 10SM FEW080 SCT120 BKN220 29/02 A2993 RMK AO2 SLP053 T02890017
KDEN 231953Z 33007G16KT 10SM FEW080 SCT120 BKN220 29/00 A2990 RMK AO2 SLP042 T02890000
KDEN 232053Z 01013KT 10SM FEW080 SCT140 SCT220 30/01 A2987 RMK AO2 SLP030 T03000011 58025
KDEN 232153Z 00000KT 10SM FEW080 FEW140 SCT220 30/01 A2985 RMK AO2 SLP023 T03000006
KDEN 232253Z 06006G17KT 10SM FEW080 FEW140 SCT220 31/01 A2984 RMK AO2 SLP023 T03060006
KDEN 232353Z 12011G22KT 10SM FEW080 FEW140 FEW220 30/05 A2982 RMK AO2 SLP017 T03000050 10317 20272 56014



Page loaded:  00:58 UTC  |   05:58 PM Pacific  |   06:58 PM Mountain  |   07:58 PM Central  |   08:58 PM Eastern

 

ADVISORIES

FORECASTS

FORECASTS

OBSERVATIONS

USER TOOLS

ABOUT US